Time;durP1;ratioP1;P1;durP2;ratioP2;P2;SDS_P1;SDS_P2;PMS_P1;PMS_P2;Temp;Humidity;BMP_temperature;BMP_pressure;BME280_temperature;BME280_humidity;BME280_pressure;Samples;Min_cycle;Max_cycle;Signal;HPM_P1;HPM_P2
2020/12/24 00:01:40;;;;;;;7.80;3.70;;;8.90;99.90;;;;;;5072471;28;20437;-79
2020/12/24 00:04:05;;;;;;;11.57;2.92;;;8.90;99.90;;;;;;5082724;28;20034;-79
2020/12/24 00:06:31;;;;;;;16.40;2.35;;;8.80;99.90;;;;;;5056126;28;20016;-79
2020/12/24 00:08:56;;;;;;;10.63;2.28;;;8.80;99.90;;;;;;5054518;28;20069;-79
2020/12/24 00:11:25;;;;;;;11.15;2.40;;;8.80;99.90;;;;;;5072038;28;20084;-79
2020/12/24 00:13:50;;;;;;;12.95;2.92;;;8.80;99.90;;;;;;5072349;28;20111;-79
2020/12/24 00:16:16;;;;;;;8.38;2.10;;;8.80;99.90;;;;;;5054054;28;20066;-79
2020/12/24 00:18:41;;;;;;;12.13;2.22;;;8.80;99.90;;;;;;5054257;28;20066;-79
2020/12/24 00:21:08;;;;;;;13.82;2.72;;;8.80;99.90;;;;;;5064255;28;20103;-79
2020/12/24 00:23:34;;;;;;;6.95;1.65;;;8.70;99.90;;;;;;5055684;28;20032;-79
2020/12/24 00:26:00;;;;;;;12.75;1.95;;;8.60;99.90;;;;;;5075048;28;20101;-79
2020/12/24 00:28:25;;;;;;;11.07;1.88;;;8.60;99.90;;;;;;5055962;28;20119;-79
2020/12/24 00:30:51;;;;;;;9.07;2.50;;;8.60;99.90;;;;;;5072221;28;20020;-79
2020/12/24 00:33:16;;;;;;;14.52;2.03;;;8.60;99.90;;;;;;5085601;28;20020;-79
2020/12/24 00:35:42;;;;;;;12.30;2.05;;;8.60;99.90;;;;;;5054175;28;20464;-79
2020/12/24 00:38:07;;;;;;;11.48;1.67;;;8.60;99.90;;;;;;5082248;28;20020;-79
2020/12/24 00:40:33;;;;;;;18.83;2.22;;;8.60;99.90;;;;;;5073742;28;20050;-79
2020/12/24 00:42:58;;;;;;;12.18;2.10;;;8.60;99.90;;;;;;5054047;28;20078;-79
2020/12/24 00:45:24;;;;;;;15.02;2.33;;;8.60;99.90;;;;;;5072027;28;20095;-79
2020/12/24 00:47:50;;;;;;;14.90;2.05;;;8.60;99.90;;;;;;5085881;28;20048;-79
2020/12/24 00:50:16;;;;;;;13.18;1.73;;;8.60;99.90;;;;;;5080369;28;20044;-79
2020/12/24 00:52:42;;;;;;;15.85;2.17;;;8.60;99.90;;;;;;5074365;28;20024;-78
2020/12/24 00:55:07;;;;;;;12.88;2.13;;;8.60;99.90;;;;;;5072074;28;20392;-79
2020/12/24 00:57:32;;;;;;;12.55;2.28;;;8.60;99.90;;;;;;5056745;28;20016;-79
2020/12/24 00:59:58;;;;;;;11.32;1.60;;;8.60;99.90;;;;;;5073704;28;20023;-79
2020/12/24 01:02:24;;;;;;;10.98;1.90;;;8.60;99.90;;;;;;5061565;28;20017;-79
2020/12/24 01:04:49;;;;;;;8.15;1.50;;;8.60;99.90;;;;;;5055912;28;20041;-78
2020/12/24 01:07:16;;;;;;;17.92;3.13;;;8.50;99.90;;;;;;5063713;28;20021;-79
2020/12/24 01:09:41;;;;;;;8.52;2.38;;;8.50;99.90;;;;;;5053681;28;20021;-79
2020/12/24 01:12:07;;;;;;;9.65;1.85;;;8.50;99.90;;;;;;5058263;28;20119;-79
2020/12/24 01:14:33;;;;;;;10.23;1.50;;;8.50;99.90;;;;;;5078036;28;20032;-79
2020/12/24 01:16:58;;;;;;;8.40;1.33;;;8.50;99.90;;;;;;5068533;28;20016;-78
2020/12/24 01:19:24;;;;;;;7.32;1.10;;;8.40;99.90;;;;;;5057657;28;20108;-78
2020/12/24 01:21:49;;;;;;;5.47;0.70;;;8.30;99.90;;;;;;5057830;28;20027;-78
2020/12/24 01:24:15;;;;;;;2.72;0.40;;;8.30;99.90;;;;;;5057295;28;20024;-78
2020/12/24 01:26:47;;;;;;;2.15;0.40;;;8.30;99.90;;;;;;5057309;28;20476;-79
2020/12/24 01:29:13;;;;;;;5.40;0.63;;;8.30;99.90;;;;;;5060014;28;20032;-79
2020/12/24 01:31:46;;;;;;;2.90;0.90;;;8.20;99.90;;;;;;5075264;28;20087;-78
2020/12/24 01:34:16;;;;;;;7.22;1.05;;;8.20;99.90;;;;;;5057112;28;20025;-78
2020/12/24 01:36:42;;;;;;;4.70;0.65;;;8.20;99.90;;;;;;5059581;28;20115;-78
2020/12/24 01:39:08;;;;;;;10.73;1.48;;;8.20;99.90;;;;;;5057234;28;20096;-78
2020/12/24 01:41:34;;;;;;;6.05;1.20;;;8.10;99.90;;;;;;5057352;28;20035;-78
2020/12/24 01:43:59;;;;;;;9.45;1.70;;;8.10;99.90;;;;;;5074816;28;20017;-78
2020/12/24 01:46:26;;;;;;;11.60;1.33;;;8.10;99.90;;;;;;5081502;28;20024;-78
2020/12/24 01:48:52;;;;;;;12.48;1.63;;;8.10;99.90;;;;;;5064067;28;20060;-78
2020/12/24 01:51:30;;;;;;;7.45;1.15;;;8.10;99.90;;;;;;5056987;28;20025;-78
2020/12/24 01:53:59;;;;;;;8.40;1.33;;;8.10;99.90;;;;;;5059663;28;20055;-78
2020/12/24 01:56:25;;;;;;;13.02;2.00;;;8.10;99.90;;;;;;5074810;28;20058;-78
2020/12/24 01:58:52;;;;;;;9.77;1.90;;;8.10;99.90;;;;;;5085514;28;20036;-78
2020/12/24 02:01:18;;;;;;;10.52;1.50;;;8.10;99.90;;;;;;5077530;28;20021;-78
2020/12/24 02:03:44;;;;;;;9.57;1.50;;;8.20;99.90;;;;;;5076892;28;20032;-78
2020/12/24 02:06:10;;;;;;;12.27;2.15;;;8.20;99.90;;;;;;5056604;28;20020;-78
2020/12/24 02:08:36;;;;;;;16.77;1.88;;;8.30;99.90;;;;;;5074499;28;20033;-78
2020/12/24 02:11:02;;;;;;;14.23;2.20;;;8.30;99.90;;;;;;5056725;28;20391;-78
2020/12/24 02:13:27;;;;;;;12.75;1.60;;;8.30;99.90;;;;;;5056306;28;20028;-78
2020/12/24 02:15:53;;;;;;;7.63;1.80;;;8.30;99.90;;;;;;5082869;28;20478;-78
2020/12/24 02:18:19;;;;;;;12.30;1.75;;;8.30;99.90;;;;;;5076158;28;20067;-78
2020/12/24 02:20:45;;;;;;;12.18;1.98;;;8.30;99.90;;;;;;5083484;28;20021;-78
2020/12/24 02:23:11;;;;;;;13.18;2.13;;;8.30;99.90;;;;;;5062081;28;20175;-78
2020/12/24 02:25:37;;;;;;;10.35;1.50;;;8.30;99.90;;;;;;5074251;28;20028;-77
2020/12/24 02:28:04;;;;;;;9.82;1.88;;;8.30;99.90;;;;;;5074416;28;20032;-77
2020/12/24 02:30:29;;;;;;;11.80;1.58;;;8.30;99.90;;;;;;5056252;28;20074;-77
2020/12/24 02:32:55;;;;;;;13.30;2.20;;;8.30;99.90;;;;;;5074207;28;20029;-78
2020/12/24 02:35:20;;;;;;;13.32;2.10;;;8.30;99.90;;;;;;5076449;28;20093;-78
2020/12/24 02:37:46;;;;;;;11.50;2.30;;;8.30;99.90;;;;;;5075951;28;20025;-78
2020/12/24 02:40:12;;;;;;;10.98;1.95;;;8.20;99.90;;;;;;5057179;28;20020;-78
2020/12/24 02:42:37;;;;;;;8.82;1.73;;;8.30;99.90;;;;;;5071049;28;20037;-78
2020/12/24 02:45:05;;;;;;;9.60;1.50;;;8.20;99.90;;;;;;5055880;28;20116;-78
2020/12/24 02:47:30;;;;;;;8.63;1.80;;;8.20;99.90;;;;;;5057777;28;20025;-78
2020/12/24 02:49:57;;;;;;;10.13;1.90;;;8.20;99.90;;;;;;5085725;28;20052;-78
2020/12/24 02:52:24;;;;;;;10.82;1.85;;;8.20;99.90;;;;;;5055860;28;20020;-78
2020/12/24 02:54:49;;;;;;;13.57;3.40;;;8.20;99.90;;;;;;5073577;28;20017;-78
2020/12/24 02:57:15;;;;;;;10.75;2.30;;;8.20;99.90;;;;;;5058840;28;20116;-78
2020/12/24 02:59:40;;;;;;;9.25;1.75;;;8.20;99.90;;;;;;5084511;28;20059;-78
2020/12/24 03:02:06;;;;;;;11.05;2.22;;;8.20;99.90;;;;;;5083851;28;20024;-78
2020/12/24 03:04:33;;;;;;;16.52;3.15;;;8.20;99.90;;;;;;5062240;28;20024;-78
2020/12/24 03:06:59;;;;;;;13.30;2.08;;;8.20;99.90;;;;;;5055712;28;20012;-78
2020/12/24 03:09:24;;;;;;;11.05;1.73;;;8.20;99.90;;;;;;5055344;28;20127;-78
2020/12/24 03:11:50;;;;;;;12.68;2.08;;;8.20;99.90;;;;;;5055390;28;20601;-78
2020/12/24 03:14:19;;;;;;;14.20;2.28;;;8.20;99.90;;;;;;5073069;28;20016;-77
2020/12/24 03:16:46;;;;;;;10.10;1.83;;;8.20;99.90;;;;;;5073495;28;20040;-78
2020/12/24 03:19:11;;;;;;;14.88;1.92;;;8.20;99.90;;;;;;5064984;28;20028;-78
2020/12/24 03:21:38;;;;;;;13.02;1.83;;;8.20;99.90;;;;;;5057841;28;20017;-78
2020/12/24 03:24:04;;;;;;;12.52;1.65;;;8.20;99.90;;;;;;5054989;28;20028;-78
2020/12/24 03:26:29;;;;;;;9.00;1.50;;;8.20;99.90;;;;;;5055112;28;20585;-78
2020/12/24 03:28:55;;;;;;;15.95;2.35;;;8.20;99.90;;;;;;5067939;28;20115;-78
2020/12/24 03:31:25;;;;;;;10.18;2.05;;;8.20;99.90;;;;;;5073010;28;20025;-78
2020/12/24 03:33:52;;;;;;;14.30;2.17;;;8.30;99.90;;;;;;5057413;28;20020;-78
2020/12/24 03:36:17;;;;;;;14.95;2.10;;;8.30;99.90;;;;;;5056839;28;20029;-78
2020/12/24 03:38:43;;;;;;;16.30;1.60;;;8.20;99.90;;;;;;5072593;28;20031;-78
2020/12/24 03:41:09;;;;;;;14.90;2.08;;;8.20;99.90;;;;;;5054960;28;20016;-77
2020/12/24 03:43:34;;;;;;;15.40;1.77;;;8.20;99.90;;;;;;5072492;28;20020;-78
2020/12/24 03:46:00;;;;;;;11.02;2.05;;;8.20;99.90;;;;;;5057823;28;20027;-78
2020/12/24 03:48:26;;;;;;;15.55;1.83;;;8.20;99.90;;;;;;5072737;28;20031;-78
2020/12/24 03:50:52;;;;;;;18.08;2.25;;;8.20;99.90;;;;;;5077184;28;20052;-78
2020/12/24 03:53:18;;;;;;;16.77;3.25;;;8.20;99.90;;;;;;5054485;28;20024;-78
2020/12/24 03:55:44;;;;;;;17.20;3.33;;;8.20;99.90;;;;;;5054500;28;20023;-78
2020/12/24 03:58:09;;;;;;;17.75;3.30;;;8.20;99.90;;;;;;5072448;28;20025;-78
2020/12/24 04:00:35;;;;;;;23.08;2.78;;;8.20;99.90;;;;;;5072261;28;20013;-78
2020/12/24 04:03:00;;;;;;;14.57;2.60;;;8.20;99.90;;;;;;5073324;28;20059;-78
2020/12/24 04:05:26;;;;;;;19.90;2.85;;;8.20;99.90;;;;;;5065281;28;20539;-78
2020/12/24 04:07:51;;;;;;;18.00;2.92;;;8.20;99.90;;;;;;5054231;28;20020;-78
2020/12/24 04:10:17;;;;;;;13.52;2.55;;;8.20;99.90;;;;;;5054327;28;20035;-78
2020/12/24 04:12:42;;;;;;;15.38;3.20;;;8.20;99.90;;;;;;5054256;28;20077;-78
2020/12/24 04:15:08;;;;;;;22.20;3.55;;;8.20;99.90;;;;;;5054183;28;20016;-77
2020/12/24 04:17:33;;;;;;;13.45;2.80;;;8.20;99.90;;;;;;5054334;28;20498;-78
2020/12/24 04:19:59;;;;;;;14.05;2.40;;;8.20;99.90;;;;;;5065507;28;20024;-78
2020/12/24 04:22:24;;;;;;;13.27;4.07;;;8.20;99.90;;;;;;5057020;28;20063;-78
2020/12/24 04:24:51;;;;;;;12.57;2.70;;;8.20;99.90;;;;;;5071961;28;20376;-78
2020/12/24 04:27:16;;;;;;;15.45;2.40;;;8.20;99.90;;;;;;5072162;28;20012;-78
2020/12/24 04:29:42;;;;;;;11.70;2.45;;;8.20;99.90;;;;;;5054092;28;20017;-78
2020/12/24 04:32:07;;;;;;;14.00;2.05;;;8.20;99.90;;;;;;5053997;28;20107;-78
2020/12/24 04:34:33;;;;;;;15.30;2.47;;;8.20;99.90;;;;;;5064812;28;20073;-78
2020/12/24 04:36:58;;;;;;;18.10;2.63;;;8.20;99.90;;;;;;5071985;28;20056;-78
2020/12/24 04:39:24;;;;;;;14.05;2.75;;;8.20;99.90;;;;;;5072194;28;20016;-78
2020/12/24 04:41:52;;;;;;;21.65;3.30;;;8.20;99.90;;;;;;5053998;28;20483;-77
2020/12/24 04:44:18;;;;;;;17.55;3.88;;;8.20;99.90;;;;;;5071951;28;20503;-78
2020/12/24 04:46:44;;;;;;;13.13;2.03;;;8.20;99.90;;;;;;5081894;28;20024;-78
2020/12/24 04:49:10;;;;;;;12.40;1.92;;;8.20;99.90;;;;;;5062520;28;20213;-78
2020/12/24 04:51:36;;;;;;;15.50;2.30;;;8.20;99.90;;;;;;5058075;28;20016;-78
2020/12/24 04:54:02;;;;;;;15.88;1.52;;;8.20;99.90;;;;;;5057980;28;20052;-78
2020/12/24 04:56:28;;;;;;;16.65;4.00;;;8.20;99.90;;;;;;5057959;28;20074;-78
2020/12/24 04:58:54;;;;;;;17.52;2.42;;;8.20;99.90;;;;;;5058195;28;20016;-78
2020/12/24 05:01:20;;;;;;;17.08;2.72;;;8.20;99.90;;;;;;5076007;28;20017;-78
2020/12/24 05:03:46;;;;;;;18.70;2.38;;;8.20;99.90;;;;;;5057888;28;20483;-78
2020/12/24 05:06:16;;;;;;;14.23;2.13;;;8.20;99.90;;;;;;5076217;28;20029;-78
2020/12/24 05:08:56;;;;;;;12.73;1.90;;;8.20;99.90;;;;;;5076107;28;20530;-78
2020/12/24 05:11:30;;;;;;;18.75;3.03;;;8.20;99.90;;;;;;5083656;28;20449;-79
2020/12/24 05:13:56;;;;;;;13.38;2.25;;;8.20;99.90;;;;;;5066878;28;20096;-78
2020/12/24 05:16:22;;;;;;;10.07;1.52;;;8.20;99.90;;;;;;5056812;28;20025;-78
2020/12/24 05:18:49;;;;;;;16.17;2.80;;;8.20;99.90;;;;;;5056532;28;20044;-78
2020/12/24 05:21:33;;;;;;;18.38;2.95;;;8.20;99.90;;;;;;5074735;28;20017;-78
2020/12/24 05:23:58;;;;;;;18.17;2.78;;;8.20;99.90;;;;;;5071576;28;20074;-78
2020/12/24 05:26:24;;;;;;;13.38;3.42;;;8.10;99.90;;;;;;5056777;28;20028;-78
2020/12/24 05:28:50;;;;;;;19.75;2.83;;;8.00;99.90;;;;;;5059406;28;20107;-78
2020/12/24 05:31:34;;;;;;;14.60;2.00;;;7.90;99.90;;;;;;5074675;28;20021;-78
2020/12/24 05:34:00;;;;;;;6.30;2.00;;;7.90;99.90;;;;;;5075077;28;20048;-79
2020/12/24 05:36:25;;;;;;;0.93;0.50;;;7.80;99.90;;;;;;5075491;28;20515;-79
2020/12/24 05:38:52;;;;;;;1.23;0.30;;;7.60;99.90;;;;;;5058913;28;20515;-79
2020/12/24 05:41:37;;;;;;;0.30;0.20;;;7.20;99.90;;;;;;5066966;28;20557;-79
2020/12/24 05:44:10;;;;;;;0.68;0.20;;;6.90;99.90;;;;;;5078311;28;20021;-79
2020/12/24 05:46:43;;;;;;;0.60;0.25;;;6.50;99.90;;;;;;5075508;28;20020;-79
2020/12/24 05:49:10;;;;;;;0.20;0.13;;;6.30;99.90;;;;;;5075166;28;20025;-79
2020/12/24 05:51:38;;;;;;;0.50;0.20;;;6.20;99.90;;;;;;5057679;28;20021;-79
2020/12/24 05:54:05;;;;;;;1.30;0.28;;;6.10;99.90;;;;;;5075436;28;20021;-79
2020/12/24 05:56:33;;;;;;;0.38;0.20;;;6.00;99.90;;;;;;5075496;28;20021;-79
2020/12/24 05:59:03;;;;;;;1.25;0.32;;;5.90;99.90;;;;;;5057096;28;20039;-78
2020/12/24 06:01:30;;;;;;;0.57;0.30;;;5.80;99.90;;;;;;5057504;28;20048;-79
2020/12/24 06:04:06;;;;;;;0.20;0.20;;;5.70;99.90;;;;;;5074999;28;20024;-79
2020/12/24 06:07:00;;;;;;;0.30;0.15;;;5.60;99.90;;;;;;5077399;28;20020;-79
2020/12/24 06:09:37;;;;;;;0.60;0.20;;;5.50;99.90;;;;;;5070001;28;20024;-79
2020/12/24 06:12:19;;;;;;;0.52;0.20;;;5.40;99.90;;;;;;5062706;28;20156;-79
2020/12/24 06:14:48;;;;;;;2.92;0.20;;;5.30;99.90;;;;;;5057299;28;20066;-79
2020/12/24 06:17:27;;;;;;;0.30;0.20;;;5.30;99.90;;;;;;5057190;28;20035;-79
2020/12/24 06:19:53;;;;;;;0.70;0.40;;;5.20;99.90;;;;;;5075176;28;20025;-79
2020/12/24 06:22:20;;;;;;;0.50;0.20;;;5.10;99.90;;;;;;5057135;28;20020;-79
2020/12/24 06:24:54;;;;;;;0.55;0.30;;;5.00;99.90;;;;;;5057138;28;20028;-79
2020/12/24 06:27:45;;;;;;;1.23;0.20;;;5.00;99.90;;;;;;5056546;28;20024;-79
2020/12/24 06:30:15;;;;;;;0.85;0.40;;;5.00;99.90;;;;;;5066426;28;20489;-79
2020/12/24 06:32:46;;;;;;;2.05;0.20;;;5.00;99.90;;;;;;5085529;28;20035;-79
2020/12/24 06:35:31;;;;;;;0.90;0.30;;;4.90;99.90;;;;;;5074472;28;20111;-79
2020/12/24 06:37:57;;;;;;;0.47;0.20;;;4.90;99.90;;;;;;5057040;28;20060;-78
2020/12/24 06:40:33;;;;;;;1.65;0.20;;;4.80;99.90;;;;;;5075939;28;20030;-79
2020/12/24 06:42:59;;;;;;;1.55;0.95;;;4.80;99.90;;;;;;5089988;28;20024;-78
2020/12/24 06:45:28;;;;;;;0.95;0.40;;;4.70;99.90;;;;;;5075110;28;20020;-78
2020/12/24 06:48:12;;;;;;;0.55;0.30;;;4.70;99.90;;;;;;5076618;28;20467;-79
2020/12/24 06:50:39;;;;;;;1.60;0.30;;;4.70;99.90;;;;;;5071539;28;20052;-78
2020/12/24 06:53:30;;;;;;;1.10;0.40;;;4.70;99.90;;;;;;5082178;28;20017;-78
2020/12/24 06:56:16;;;;;;;1.55;0.30;;;4.70;99.90;;;;;;5056273;28;20028;-78
2020/12/24 06:58:53;;;;;;;2.45;0.50;;;4.80;99.90;;;;;;5056380;28;20036;-78
2020/12/24 07:01:30;;;;;;;1.80;0.50;;;4.80;99.90;;;;;;5074237;28;20021;-78
2020/12/24 07:04:01;;;;;;;0.95;0.40;;;4.70;99.90;;;;;;5056733;28;20025;-77
2020/12/24 07:06:42;;;;;;;1.45;0.68;;;4.70;99.90;;;;;;5077970;28;20063;-78
2020/12/24 07:09:09;;;;;;;1.33;0.60;;;4.70;99.90;;;;;;5067559;28;20031;-79
2020/12/24 07:11:51;;;;;;;1.50;0.77;;;4.70;99.90;;;;;;5079465;28;20510;-78
2020/12/24 07:14:34;;;;;;;2.10;0.82;;;4.70;99.90;;;;;;5069297;28;20426;-78
2020/12/24 07:17:26;;;;;;;3.40;0.70;;;4.70;99.90;;;;;;5069859;28;20028;-78
2020/12/24 07:19:55;;;;;;;2.47;1.20;;;4.70;99.90;;;;;;5089050;28;20032;-78
2020/12/24 07:22:27;;;;;;;2.42;1.08;;;4.60;99.90;;;;;;5091254;28;20089;-78
2020/12/24 07:25:00;;;;;;;2.33;0.82;;;4.70;99.90;;;;;;5055607;28;20032;-79
2020/12/24 07:27:26;;;;;;;1.23;0.85;;;4.80;99.90;;;;;;5057357;28;20451;-78
2020/12/24 07:29:52;;;;;;;2.55;0.93;;;4.70;99.90;;;;;;5075342;28;20056;-78
2020/12/24 07:32:19;;;;;;;3.25;0.98;;;4.80;99.90;;;;;;5093159;28;20157;-78
2020/12/24 07:34:45;;;;;;;3.90;1.10;;;4.80;99.90;;;;;;5092068;28;20073;-78
2020/12/24 07:37:11;;;;;;;1.73;0.80;;;4.80;99.90;;;;;;5080069;28;20028;-79
2020/12/24 07:39:37;;;;;;;1.25;0.57;;;4.90;99.90;;;;;;5068962;28;20483;-78
2020/12/24 07:42:03;;;;;;;1.33;0.70;;;5.00;99.90;;;;;;5069738;28;20536;-78
2020/12/24 07:44:28;;;;;;;2.28;1.00;;;5.00;99.90;;;;;;5059405;28;20024;-78
2020/12/24 07:47:01;;;;;;;2.72;0.90;;;5.00;99.90;;;;;;5055318;28;20028;-78
2020/12/24 07:49:26;;;;;;;2.45;1.00;;;5.10;99.90;;;;;;5054396;28;20045;-79
2020/12/24 07:51:56;;;;;;;2.30;0.77;;;5.10;99.90;;;;;;5072926;28;20020;-79
2020/12/24 07:54:25;;;;;;;1.38;0.80;;;5.10;99.90;;;;;;5055085;28;20031;-78
2020/12/24 07:56:51;;;;;;;1.52;0.80;;;5.10;99.90;;;;;;5054745;28;20040;-79
2020/12/24 07:59:17;;;;;;;1.40;0.70;;;5.20;99.90;;;;;;5072715;28;20100;-78
2020/12/24 08:01:43;;;;;;;1.83;0.90;;;5.20;99.90;;;;;;5054667;28;20471;-78
2020/12/24 08:04:08;;;;;;;1.92;0.82;;;5.20;99.90;;;;;;5072819;28;20025;-78
2020/12/24 08:06:34;;;;;;;2.22;0.95;;;5.30;99.90;;;;;;5053817;28;20028;-78
2020/12/24 08:09:13;;;;;;;4.55;1.00;;;5.20;99.90;;;;;;5054896;28;20020;-79
2020/12/24 08:11:51;;;;;;;1.85;1.00;;;5.30;99.90;;;;;;5082895;28;20021;-78
2020/12/24 08:14:24;;;;;;;2.92;1.40;;;5.20;99.90;;;;;;5066498;28;20086;-79
2020/12/24 08:16:51;;;;;;;2.22;1.35;;;5.30;99.90;;;;;;5072453;28;20032;-78
2020/12/24 08:19:25;;;;;;;3.63;1.70;;;5.30;99.90;;;;;;5088051;28;20046;-78
2020/12/24 08:21:53;;;;;;;3.33;1.20;;;5.30;99.90;;;;;;5054449;28;20020;-77
2020/12/24 08:24:19;;;;;;;3.60;1.70;;;5.30;99.90;;;;;;5053356;28;20031;-78
2020/12/24 08:26:45;;;;;;;3.25;1.48;;;5.30;99.90;;;;;;5071534;28;20032;-78
2020/12/24 08:29:12;;;;;;;3.13;1.60;;;5.30;99.90;;;;;;5072021;28;20016;-78
2020/12/24 08:31:40;;;;;;;2.90;1.65;;;5.30;99.90;;;;;;5054404;28;20115;-77
2020/12/24 08:34:07;;;;;;;3.60;1.58;;;5.30;99.90;;;;;;5072169;28;20024;-78
2020/12/24 08:36:44;;;;;;;4.28;1.77;;;5.30;99.90;;;;;;5054035;28;20553;-78
2020/12/24 08:39:11;;;;;;;4.40;2.17;;;5.30;99.90;;;;;;5061007;28;20119;-78
2020/12/24 08:41:45;;;;;;;5.65;2.35;;;5.30;99.90;;;;;;5065136;28;20021;-78
2020/12/24 08:44:15;;;;;;;3.65;2.38;;;5.40;99.90;;;;;;5055432;28;20119;-78
2020/12/24 08:46:41;;;;;;;5.88;3.15;;;5.40;99.90;;;;;;5054351;28;20025;-78
2020/12/24 08:49:23;;;;;;;5.88;3.38;;;5.40;99.90;;;;;;5053588;28;20392;-78
2020/12/24 08:51:49;;;;;;;5.95;3.55;;;5.40;99.90;;;;;;5066522;28;20040;-78
2020/12/24 08:54:15;;;;;;;8.50;3.40;;;5.40;99.90;;;;;;5064742;28;20048;-78
2020/12/24 08:56:43;;;;;;;7.28;3.78;;;5.40;99.90;;;;;;5071668;28;20064;-78
2020/12/24 08:59:13;;;;;;;6.63;3.63;;;5.40;99.90;;;;;;5053260;28;20062;-78
2020/12/24 09:01:43;;;;;;;7.28;3.38;;;5.50;99.90;;;;;;5054739;28;20484;-78
2020/12/24 09:04:12;;;;;;;;;;;5.40;99.90;;;;;;5056088;28;20484;-78
2020/12/24 09:06:38;;;;;;;6.00;3.43;;;5.40;99.90;;;;;;5058993;28;20289;-78
2020/12/24 09:09:04;;;;;;;5.97;2.78;;;5.40;99.90;;;;;;5073111;28;20025;-78
2020/12/24 09:11:31;;;;;;;5.05;3.13;;;5.50;99.90;;;;;;5054813;28;20028;-78
2020/12/24 09:13:58;;;;;;;5.28;2.60;;;5.50;99.90;;;;;;5058045;28;20020;-78
2020/12/24 09:16:23;;;;;;;5.75;2.40;;;5.50;99.90;;;;;;5052162;28;20039;-78
2020/12/24 09:19:03;;;;;;;5.20;2.17;;;5.50;99.90;;;;;;5053309;28;20021;-78
2020/12/24 09:21:29;;;;;;;4.10;2.30;;;5.60;99.90;;;;;;5065201;28;20024;-78
2020/12/24 09:24:07;;;;;;;3.63;2.55;;;5.60;99.90;;;;;;5072153;28;20035;-78
2020/12/24 09:26:50;;;;;;;4.32;2.28;;;5.60;99.90;;;;;;5062105;28;20024;-78
2020/12/24 09:29:17;;;;;;;5.30;2.60;;;5.60;99.90;;;;;;5063824;28;20044;-78
2020/12/24 09:31:54;;;;;;;5.00;2.42;;;5.70;99.90;;;;;;5053830;28;20149;-78
2020/12/24 09:34:19;;;;;;;3.70;2.25;;;5.70;99.90;;;;;;5074748;28;20103;-78
2020/12/24 09:36:48;;;;;;;3.83;2.35;;;5.70;99.90;;;;;;5059030;28;20194;-78
2020/12/24 09:39:14;;;;;;;4.53;2.42;;;5.80;99.90;;;;;;5071293;28;20414;-78
2020/12/24 09:41:41;;;;;;;5.18;2.42;;;5.80;99.90;;;;;;5074635;28;20025;-79
2020/12/24 09:44:07;;;;;;;6.32;1.92;;;5.80;99.90;;;;;;5086469;28;20020;-78
2020/12/24 09:46:33;;;;;;;3.35;1.75;;;5.80;99.90;;;;;;5075050;28;20089;-78
2020/12/24 09:48:58;;;;;;;4.43;2.22;;;5.80;99.90;;;;;;5057056;28;20059;-78
2020/12/24 09:51:24;;;;;;;3.00;1.90;;;5.90;99.90;;;;;;5068688;28;20032;-78
2020/12/24 09:53:49;;;;;;;2.40;1.33;;;5.80;99.90;;;;;;5074703;28;20036;-78
2020/12/24 09:56:18;;;;;;;3.35;1.60;;;5.90;99.90;;;;;;5057264;28;20021;-78
2020/12/24 09:58:43;;;;;;;5.95;1.80;;;5.90;99.90;;;;;;5082277;28;20016;-78
2020/12/24 10:01:09;;;;;;;3.30;1.67;;;5.90;99.90;;;;;;5074632;28;20039;-78
2020/12/24 10:03:34;;;;;;;4.05;1.88;;;5.80;99.90;;;;;;5074149;28;20059;-78
2020/12/24 10:06:00;;;;;;;5.93;2.22;;;5.90;99.90;;;;;;5074477;28;20048;-78
2020/12/24 10:08:25;;;;;;;3.63;2.08;;;5.80;99.90;;;;;;5075010;28;20032;-78
2020/12/24 10:10:51;;;;;;;4.55;1.88;;;5.80;99.90;;;;;;5056170;28;20491;-78
2020/12/24 10:13:16;;;;;;;5.40;1.95;;;5.80;99.90;;;;;;5080043;28;20054;-78
2020/12/24 10:15:44;;;;;;;4.63;2.80;;;5.80;99.90;;;;;;5057697;28;20020;-77
2020/12/24 10:18:10;;;;;;;5.32;2.75;;;5.80;99.90;;;;;;5076222;28;20016;-77
2020/12/24 10:20:35;;;;;;;4.47;3.40;;;5.70;99.90;;;;;;5056787;28;20462;-77
2020/12/24 10:23:01;;;;;;;6.38;3.40;;;5.70;99.90;;;;;;5057315;28;20077;-77
2020/12/24 10:25:26;;;;;;;5.82;3.67;;;5.70;99.90;;;;;;5057718;28;20061;-78
2020/12/24 10:27:52;;;;;;;10.80;5.05;;;5.80;99.90;;;;;;5075429;28;20052;-78
2020/12/24 10:30:17;;;;;;;14.07;6.75;;;5.80;99.90;;;;;;5076111;28;20514;-79
2020/12/24 10:32:43;;;;;;;13.45;5.78;;;5.80;99.90;;;;;;5073451;28;20035;-78
2020/12/24 10:35:09;;;;;;;14.23;6.25;;;5.80;99.90;;;;;;5087185;28;20035;-78
2020/12/24 10:37:34;;;;;;;13.45;6.38;;;5.80;99.90;;;;;;5055955;28;20025;-78
2020/12/24 10:40:00;;;;;;;13.15;6.93;;;5.80;99.90;;;;;;5074968;28;20021;-78
2020/12/24 10:42:25;;;;;;;8.07;4.47;;;5.90;99.90;;;;;;5074986;28;20099;-78
2020/12/24 10:44:51;;;;;;;6.32;3.95;;;5.90;99.90;;;;;;5073609;28;20060;-78
2020/12/24 10:47:16;;;;;;;6.03;2.78;;;5.90;99.90;;;;;;5073799;28;20045;-78
2020/12/24 10:49:43;;;;;;;8.45;2.80;;;5.90;99.90;;;;;;5080421;28;20048;-78
2020/12/24 10:52:13;;;;;;;9.02;3.05;;;5.90;99.90;;;;;;5081168;28;20117;-78
2020/12/24 10:54:38;;;;;;;4.82;2.92;;;5.90;99.90;;;;;;5056004;28;20028;-79
2020/12/24 10:57:04;;;;;;;7.35;3.33;;;5.90;99.90;;;;;;5065090;28;20074;-79
2020/12/24 10:59:30;;;;;;;6.75;3.30;;;5.90;99.90;;;;;;5057741;28;20056;-78
2020/12/24 11:01:55;;;;;;;5.85;2.80;;;5.90;99.90;;;;;;5066832;28;20433;-79
2020/12/24 11:04:21;;;;;;;7.55;3.05;;;5.90;99.90;;;;;;5055205;28;20387;-78
2020/12/24 11:06:46;;;;;;;6.72;3.17;;;5.90;99.90;;;;;;5060582;28;20450;-79
2020/12/24 11:09:13;;;;;;;7.03;3.90;;;5.80;99.90;;;;;;5062766;28;21829;-79
2020/12/24 11:11:39;;;;;;;6.90;2.85;;;5.90;99.90;;;;;;5055194;28;20028;-79
2020/12/24 11:14:05;;;;;;;5.80;3.03;;;5.90;99.90;;;;;;5086679;28;20031;-79
2020/12/24 11:16:31;;;;;;;8.48;3.13;;;5.90;99.90;;;;;;5072996;28;20017;-79
2020/12/24 11:18:57;;;;;;;5.13;2.95;;;5.90;99.90;;;;;;5054885;28;20013;-79
2020/12/24 11:21:22;;;;;;;6.70;2.30;;;5.90;99.90;;;;;;5072739;28;20384;-79
2020/12/24 11:23:49;;;;;;;11.90;3.10;;;6.00;99.90;;;;;;5073718;28;20391;-78
2020/12/24 11:26:24;;;;;;;8.65;2.95;;;6.00;99.90;;;;;;5073368;28;20499;-78
2020/12/24 11:28:51;;;;;;;12.15;2.50;;;6.00;99.90;;;;;;5073193;28;20028;-78
2020/12/24 11:31:27;;;;;;;5.85;2.35;;;6.00;99.90;;;;;;5077256;28;20062;-79
2020/12/24 11:33:53;;;;;;;7.22;2.80;;;6.10;99.90;;;;;;5054890;28;20032;-79
2020/12/24 11:36:19;;;;;;;7.55;3.28;;;6.10;99.90;;;;;;5055019;28;20024;-79
2020/12/24 11:38:46;;;;;;;9.63;2.22;;;6.10;99.90;;;;;;5075349;28;20354;-78
2020/12/24 11:41:16;;;;;;;5.82;2.80;;;6.10;99.90;;;;;;5075235;28;20017;-79
2020/12/24 11:43:43;;;;;;;6.82;2.47;;;6.10;99.90;;;;;;5063101;28;20029;-79
2020/12/24 11:46:10;;;;;;;7.80;3.25;;;6.20;99.90;;;;;;5054751;28;20033;-79
2020/12/24 11:48:37;;;;;;;8.93;2.83;;;6.20;99.90;;;;;;5072994;28;20021;-79
2020/12/24 11:51:11;;;;;;;6.55;2.65;;;6.20;99.90;;;;;;5055824;28;20055;-79
2020/12/24 11:53:38;;;;;;;7.53;2.25;;;6.30;99.90;;;;;;5072801;28;20081;-79
2020/12/24 11:56:04;;;;;;;6.82;2.40;;;6.30;99.90;;;;;;5054238;28;20028;-79
2020/12/24 11:58:30;;;;;;;9.68;2.22;;;6.40;99.90;;;;;;5050491;28;20023;-79
2020/12/24 12:00:56;;;;;;;5.63;1.75;;;6.40;99.90;;;;;;5078885;28;20016;-79
2020/12/24 12:03:21;;;;;;;8.02;1.75;;;6.50;99.90;;;;;;5078993;28;20390;-80
2020/12/24 12:05:47;;;;;;;9.88;1.75;;;6.50;99.90;;;;;;5078723;28;20039;-79
2020/12/24 12:08:13;;;;;;;8.50;1.60;;;6.50;99.90;;;;;;5072371;28;20098;-79
2020/12/24 12:10:38;;;;;;;5.47;1.20;;;6.50;99.90;;;;;;5076665;28;20040;-79
2020/12/24 12:13:04;;;;;;;2.83;0.90;;;6.60;99.90;;;;;;5065815;28;20024;-79
2020/12/24 12:15:29;;;;;;;8.45;1.50;;;6.60;99.90;;;;;;5073498;28;20127;-79
2020/12/24 12:17:55;;;;;;;8.55;1.73;;;6.70;99.90;;;;;;5053971;28;20013;-79
2020/12/24 12:20:20;;;;;;;8.63;1.35;;;6.70;99.90;;;;;;5052857;28;20387;-79
2020/12/24 12:22:47;;;;;;;7.95;1.30;;;6.70;99.90;;;;;;5049632;28;20032;-80
2020/12/24 12:25:13;;;;;;;7.32;1.48;;;6.70;99.90;;;;;;5048342;28;20039;-79
2020/12/24 12:27:38;;;;;;;8.63;1.48;;;6.70;99.90;;;;;;5049719;28;20025;-79
2020/12/24 12:30:05;;;;;;;7.20;0.90;;;6.80;99.90;;;;;;5072517;28;20212;-79
2020/12/24 12:32:30;;;;;;;6.25;1.30;;;6.70;99.90;;;;;;5053567;28;20020;-80
2020/12/24 12:34:56;;;;;;;11.88;5.22;;;6.70;99.90;;;;;;5064612;28;20035;-79
2020/12/24 12:37:22;;;;;;;24.33;10.80;;;6.70;99.90;;;;;;5057076;28;20019;-79
2020/12/24 12:39:47;;;;;;;28.63;14.18;;;6.70;99.90;;;;;;5072451;28;20024;-78
2020/12/24 12:42:13;;;;;;;13.20;6.05;;;6.80;99.90;;;;;;5054169;28;20115;-79
2020/12/24 12:44:38;;;;;;;11.85;1.85;;;6.80;99.90;;;;;;5058159;28;20027;-78
2020/12/24 12:47:04;;;;;;;5.80;1.13;;;6.80;99.90;;;;;;5056769;28;20029;-79
2020/12/24 12:49:29;;;;;;;7.05;1.30;;;6.80;99.90;;;;;;5082161;28;20044;-79
2020/12/24 12:51:55;;;;;;;7.22;1.00;;;6.80;99.90;;;;;;5054037;28;20067;-79
2020/12/24 12:54:20;;;;;;;17.30;8.25;;;6.70;99.90;;;;;;5054038;28;20021;-79
2020/12/24 12:56:46;;;;;;;11.73;2.72;;;6.70;99.90;;;;;;5063011;28;20017;-79